createdAt,value
2023-04-19T00:00:08.208Z,20.10
2023-04-19T00:03:01.289Z,20.10
2023-04-19T00:05:55.034Z,20.10
2023-04-19T00:08:49.409Z,20.10
2023-04-19T00:11:43.003Z,20.10
2023-04-19T00:14:36.140Z,20.20
2023-04-19T00:17:29.085Z,20.10
2023-04-19T00:20:22.288Z,20.10
2023-04-19T00:23:15.914Z,20.10
2023-04-19T00:26:11.466Z,20.10
2023-04-19T00:29:04.721Z,20.10
2023-04-19T00:31:58.125Z,20.10
2023-04-19T00:34:51.088Z,20.10
2023-04-19T00:37:43.949Z,20.10
2023-04-19T00:40:38.216Z,20.10
2023-04-19T00:43:32.347Z,20.10
2023-04-19T00:46:26.909Z,20.10
2023-04-19T00:49:23.163Z,20.10
2023-04-19T00:52:16.184Z,20.10
2023-04-19T00:55:09.834Z,20.10
2023-04-19T00:58:03.579Z,20.10
2023-04-19T01:00:58.333Z,20.10
2023-04-19T01:03:52.265Z,20.10
2023-04-19T01:06:45.846Z,20.10
2023-04-19T01:09:42.480Z,20.10
2023-04-19T01:12:36.537Z,20.10
2023-04-19T01:15:29.811Z,20.10
2023-04-19T01:18:25.674Z,20.10
2023-04-19T01:21:18.594Z,20.10
2023-04-19T01:24:13.511Z,20.10
2023-04-19T01:27:07.044Z,20.10
2023-04-19T01:30:00.051Z,20.10
2023-04-19T01:32:53.057Z,20.10
2023-04-19T01:35:45.806Z,20.20
2023-04-19T01:38:39.169Z,20.10
2023-04-19T01:41:33.172Z,20.10
2023-04-19T01:44:26.004Z,20.10
2023-04-19T01:47:19.097Z,20.10
2023-04-19T01:50:12.320Z,20.10
2023-04-19T01:53:05.172Z,20.10
2023-04-19T01:55:57.968Z,20.10
2023-04-19T01:58:52.431Z,20.10
2023-04-19T02:01:46.004Z,20.10
2023-04-19T02:04:39.306Z,20.10
2023-04-19T02:07:32.090Z,20.10
2023-04-19T02:10:25.010Z,20.10
2023-04-19T02:13:18.113Z,20.10
2023-04-19T02:16:12.950Z,20.10
2023-04-19T02:19:06.005Z,20.10
2023-04-19T02:21:58.731Z,20.10
2023-04-19T02:24:52.314Z,20.10
2023-04-19T02:27:45.169Z,20.10
2023-04-19T02:30:38.159Z,20.10
2023-04-19T02:33:32.530Z,20.10
2023-04-19T02:36:26.247Z,20.10
2023-04-19T02:39:19.461Z,20.10
2023-04-19T02:42:12.918Z,20.10
2023-04-19T02:45:06.744Z,20.10
2023-04-19T02:47:59.817Z,20.10
2023-04-19T02:50:54.513Z,20.10
2023-04-19T02:53:48.213Z,20.10
2023-04-19T02:56:41.472Z,20.10
2023-04-19T02:59:35.300Z,20.10
2023-04-19T03:02:28.078Z,20.10
2023-04-19T03:05:20.966Z,20.10
2023-04-19T03:08:15.453Z,20.10
2023-04-19T03:11:09.040Z,20.10
2023-04-19T03:14:01.910Z,20.10
2023-04-19T03:16:55.036Z,20.10
2023-04-19T03:19:48.385Z,20.10
2023-04-19T03:22:41.076Z,20.10
2023-04-19T03:25:35.772Z,20.10
2023-04-19T03:28:29.175Z,20.10
2023-04-19T03:31:22.057Z,20.10
2023-04-19T03:34:15.381Z,20.10
2023-04-19T03:37:09.273Z,20.10
2023-04-19T03:40:02.297Z,20.10
2023-04-19T03:42:56.263Z,20.10
2023-04-19T03:45:49.243Z,20.10
2023-04-19T03:48:42.203Z,20.10
2023-04-19T03:51:35.104Z,20.10
2023-04-19T03:54:28.030Z,20.10
2023-04-19T03:57:22.102Z,20.10
2023-04-19T04:00:17.616Z,20.10
2023-04-19T04:03:11.216Z,20.10
2023-04-19T04:06:05.165Z,20.10
2023-04-19T04:08:58.125Z,20.10
2023-04-19T04:11:51.132Z,20.10
2023-04-19T04:14:44.103Z,20.10
2023-04-19T04:17:38.333Z,20.10
2023-04-19T04:20:31.520Z,20.10
2023-04-19T04:23:26.332Z,20.10
2023-04-19T04:26:21.728Z,20.10
2023-04-19T04:29:15.452Z,20.10
2023-04-19T04:32:13.658Z,20.10
2023-04-19T04:35:10.769Z,20.10
2023-04-19T04:38:11.038Z,20.10
2023-04-19T04:41:07.539Z,20.10
2023-04-19T04:44:12.470Z,20.10
2023-04-19T04:47:07.151Z,20.10
2023-04-19T04:50:00.424Z,20.10
2023-04-19T04:52:54.845Z,20.10
2023-04-19T04:55:48.304Z,20.10
2023-04-19T04:58:41.172Z,20.10
2023-04-19T05:01:34.134Z,20.10
2023-04-19T05:04:27.181Z,20.10
2023-04-19T05:07:20.027Z,20.10
2023-04-19T05:10:14.161Z,20.10
2023-04-19T05:13:07.313Z,20.10
2023-04-19T05:16:00.283Z,20.10
2023-04-19T05:18:53.485Z,20.10
2023-04-19T05:21:46.315Z,20.10
2023-04-19T05:24:41.130Z,20.10
2023-04-19T05:27:36.808Z,20.10
2023-04-19T05:30:30.225Z,20.10
2023-04-19T05:33:23.263Z,20.10
2023-04-19T05:36:16.193Z,20.10
2023-04-19T05:39:09.811Z,20.10
2023-04-19T05:42:03.067Z,20.00
2023-04-19T05:44:57.362Z,20.10
2023-04-19T05:47:50.292Z,20.00
2023-04-19T05:50:43.319Z,20.00
2023-04-19T05:53:36.215Z,20.10
2023-04-19T05:56:29.465Z,20.00
2023-04-19T05:59:22.112Z,20.10
2023-04-19T06:02:19.763Z,20.00
2023-04-19T06:05:13.572Z,20.00
2023-04-19T06:08:07.114Z,20.00
2023-04-19T06:11:05.258Z,20.10
2023-04-19T06:14:09.629Z,20.00
2023-04-19T06:17:03.290Z,20.10
2023-04-19T06:19:57.862Z,20.00
2023-04-19T06:22:51.190Z,20.00
2023-04-19T06:25:43.934Z,20.00
2023-04-19T06:28:36.944Z,20.10
2023-04-19T06:31:30.278Z,20.00
2023-04-19T06:34:23.016Z,20.00
2023-04-19T06:37:17.691Z,20.00
2023-04-19T06:40:12.189Z,20.00
2023-04-19T06:43:05.902Z,20.10
2023-04-19T06:45:59.633Z,20.00
2023-04-19T06:48:53.315Z,20.00
2023-04-19T06:51:46.751Z,20.00
2023-04-19T06:54:41.903Z,20.00
2023-04-19T06:57:35.175Z,20.00
2023-04-19T07:00:28.458Z,20.00
2023-04-19T07:03:21.243Z,20.00
2023-04-19T07:06:14.692Z,20.00
2023-04-19T07:09:09.262Z,20.00
2023-04-19T07:12:03.807Z,20.00
2023-04-19T07:14:57.349Z,20.00
2023-04-19T07:17:50.172Z,20.00
2023-04-19T07:20:48.484Z,20.00
2023-04-19T07:23:41.294Z,20.00
2023-04-19T07:26:34.723Z,20.00
2023-04-19T07:29:30.129Z,20.10
2023-04-19T07:32:23.237Z,20.10
2023-04-19T07:35:16.267Z,20.20
2023-04-19T07:38:09.459Z,20.30
2023-04-19T07:41:02.444Z,20.40
2023-04-19T07:43:55.336Z,20.40
2023-04-19T07:46:49.982Z,20.50
2023-04-19T07:49:44.349Z,20.60
2023-04-19T07:52:37.324Z,20.60
2023-04-19T07:55:30.445Z,20.80
2023-04-19T07:58:23.631Z,20.80
2023-04-19T08:01:17.394Z,21.00
2023-04-19T08:04:12.213Z,21.00
2023-04-19T08:07:05.462Z,21.10
2023-04-19T08:09:58.279Z,21.20
2023-04-19T08:16:27.063Z,21.40
2023-04-19T08:19:03.501Z,21.50
2023-04-19T08:21:57.723Z,21.60
2023-04-19T08:24:51.859Z,21.70
2023-04-19T08:27:45.486Z,21.70
2023-04-19T08:30:38.681Z,21.80
2023-04-19T08:33:32.456Z,21.90
2023-04-19T08:36:36.021Z,22.00
2023-04-19T08:39:33.921Z,22.10
2023-04-19T08:42:35.484Z,22.20
2023-04-19T08:45:31.406Z,22.20
2023-04-19T08:48:25.551Z,22.20
2023-04-19T08:51:19.792Z,22.30
2023-04-19T08:54:13.314Z,22.20
2023-04-19T08:57:08.549Z,21.40
2023-04-19T09:00:02.631Z,21.10
2023-04-19T09:02:55.976Z,21.30
2023-04-19T09:05:49.527Z,21.40
2023-04-19T09:08:43.073Z,21.50
2023-04-19T09:11:38.724Z,21.60
2023-04-19T09:14:33.953Z,21.70
2023-04-19T09:17:27.602Z,21.80
2023-04-19T09:20:37.219Z,21.80
2023-04-19T09:23:30.470Z,21.90
2023-04-19T09:26:23.902Z,21.90
2023-04-19T09:29:18.393Z,21.90
2023-04-19T09:32:13.086Z,22.00
2023-04-19T09:35:07.421Z,22.00
2023-04-19T09:38:06.305Z,22.10
2023-04-19T09:41:10.401Z,22.10
2023-04-19T09:44:47.385Z,22.20
2023-04-19T09:47:27.042Z,22.20
2023-04-19T09:50:25.093Z,22.30
2023-04-19T09:53:21.625Z,22.30
2023-04-19T09:56:14.493Z,22.40
2023-04-19T09:59:20.831Z,22.50
2023-04-19T10:02:15.392Z,22.40
2023-04-19T10:05:20.831Z,22.40
2023-04-19T10:08:15.616Z,22.40
2023-04-19T10:11:08.914Z,22.40
2023-04-19T10:14:06.535Z,22.30
2023-04-19T10:17:00.690Z,22.30
2023-04-19T10:20:02.771Z,22.30
2023-04-19T10:22:58.479Z,22.20
2023-04-19T10:25:56.956Z,22.20
2023-04-19T10:28:50.584Z,22.10
2023-04-19T10:31:43.636Z,22.10
2023-04-19T10:34:41.030Z,22.10
2023-04-19T10:37:34.736Z,22.00
2023-04-19T10:41:03.877Z,22.00
2023-04-19T10:44:11.161Z,22.10
2023-04-19T10:47:06.904Z,22.20
2023-04-19T10:50:00.454Z,22.20
2023-04-19T10:52:53.285Z,22.30
2023-04-19T10:55:51.991Z,22.30
2023-04-19T10:59:24.847Z,22.40
2023-04-19T11:02:30.781Z,22.40
2023-04-19T11:05:24.346Z,22.50
2023-04-19T11:08:24.145Z,22.50
2023-04-19T11:11:17.754Z,22.50
2023-04-19T11:14:11.007Z,22.60
2023-04-19T11:17:14.891Z,22.60
2023-04-19T11:20:11.887Z,22.60
2023-04-19T11:23:17.789Z,22.70
2023-04-19T11:26:12.003Z,22.70
2023-04-19T11:29:06.283Z,22.70
2023-04-19T11:32:01.543Z,22.70
2023-04-19T11:34:54.181Z,22.70
2023-04-19T11:37:49.004Z,22.80
2023-04-19T11:40:42.951Z,22.80
2023-04-19T11:43:36.741Z,22.90
2023-04-19T11:46:29.355Z,22.90
2023-04-19T11:49:27.128Z,22.90
2023-04-19T11:52:24.853Z,23.00
2023-04-19T11:55:21.576Z,23.00
2023-04-19T11:58:29.301Z,23.00
2023-04-19T12:01:24.938Z,23.00
2023-04-19T12:04:18.707Z,23.10
2023-04-19T12:07:12.872Z,23.10
2023-04-19T12:10:11.358Z,23.10
2023-04-19T12:13:19.523Z,23.10
2023-04-19T12:16:13.136Z,23.00
2023-04-19T12:19:13.887Z,23.00
2023-04-19T12:22:15.695Z,23.00
2023-04-19T12:25:09.341Z,23.00
2023-04-19T12:28:05.089Z,23.00
2023-04-19T12:30:59.765Z,22.90
2023-04-19T12:33:52.300Z,22.80
2023-04-19T12:36:45.588Z,22.70
2023-04-19T12:39:38.610Z,22.60
2023-04-19T12:42:31.578Z,22.50
2023-04-19T12:45:24.757Z,22.50
2023-04-19T12:48:19.145Z,22.40
2023-04-19T12:51:12.742Z,22.30
2023-04-19T12:54:07.396Z,22.20
2023-04-19T12:57:03.391Z,22.20
2023-04-19T12:59:56.721Z,22.20
2023-04-19T13:02:49.384Z,22.10
2023-04-19T13:05:43.558Z,22.10
2023-04-19T13:08:44.707Z,22.10
2023-04-19T13:11:40.385Z,22.10
2023-04-19T13:14:33.640Z,22.10
2023-04-19T13:17:26.753Z,22.00
2023-04-19T13:20:20.688Z,22.00
2023-04-19T13:23:16.302Z,22.00
2023-04-19T13:26:09.802Z,22.00
2023-04-19T13:29:02.843Z,21.90
2023-04-19T13:31:55.813Z,21.90
2023-04-19T13:34:48.795Z,21.90
2023-04-19T13:37:44.269Z,21.80
2023-04-19T13:40:39.014Z,21.80
2023-04-19T13:43:32.497Z,21.80
2023-04-19T13:46:26.013Z,21.80
2023-04-19T13:49:20.019Z,21.70
2023-04-19T13:52:13.405Z,21.70
2023-04-19T13:55:07.220Z,21.70
2023-04-19T13:58:03.550Z,21.70
2023-04-19T14:00:57.227Z,21.70
2023-04-19T14:03:50.969Z,21.70
2023-04-19T14:06:44.864Z,21.70
2023-04-19T14:09:37.931Z,21.70
2023-04-19T14:12:31.829Z,21.60
2023-04-19T14:15:26.357Z,21.60
2023-04-19T14:18:19.650Z,21.60
2023-04-19T14:21:12.354Z,21.60
2023-04-19T14:24:06.395Z,21.60
2023-04-19T14:27:10.364Z,21.60
2023-04-19T14:30:05.763Z,21.50
2023-04-19T14:33:00.343Z,21.60
2023-04-19T14:35:54.046Z,21.50
2023-04-19T14:38:47.774Z,21.50
2023-04-19T14:41:41.200Z,21.50
2023-04-19T14:44:34.552Z,21.60
2023-04-19T14:47:27.921Z,21.50
2023-04-19T14:50:22.865Z,21.50
2023-04-19T14:53:16.138Z,21.50
2023-04-19T14:56:09.995Z,21.50
2023-04-19T14:59:03.720Z,21.50
2023-04-19T15:01:57.109Z,21.50
2023-04-19T15:04:51.004Z,21.50
2023-04-19T15:07:45.881Z,21.50
2023-04-19T15:10:39.535Z,21.50
2023-04-19T15:13:33.865Z,21.40
2023-04-19T15:16:26.873Z,21.50
2023-04-19T15:19:19.823Z,21.40
2023-04-19T15:22:12.473Z,21.50
2023-04-19T15:25:07.551Z,21.40
2023-04-19T15:28:00.737Z,21.40
2023-04-19T15:30:59.692Z,21.40
2023-04-19T15:33:52.904Z,21.40
2023-04-19T15:36:45.701Z,21.50
2023-04-19T15:39:38.836Z,21.40
2023-04-19T15:42:32.856Z,21.40
2023-04-19T15:45:25.955Z,21.40
2023-04-19T15:48:20.483Z,21.40
2023-04-19T15:51:15.249Z,21.40
2023-04-19T15:54:08.862Z,21.40
2023-04-19T15:57:01.769Z,21.40
2023-04-19T15:59:56.039Z,21.40
2023-04-19T16:02:49.730Z,21.40
2023-04-19T16:05:42.844Z,21.30
2023-04-19T16:08:35.693Z,21.30
2023-04-19T16:11:29.563Z,21.30
2023-04-19T16:14:22.783Z,21.30
2023-04-19T16:17:17.138Z,21.30
2023-04-19T16:20:11.125Z,21.30
2023-04-19T16:23:04.763Z,21.30
2023-04-19T16:25:57.475Z,21.30
2023-04-19T16:28:50.877Z,21.30
2023-04-19T16:31:44.270Z,21.30
2023-04-19T16:34:39.037Z,21.30
2023-04-19T16:37:32.017Z,21.30
2023-04-19T16:40:25.058Z,21.30
2023-04-19T16:43:17.770Z,21.30
2023-04-19T16:46:11.043Z,21.30
2023-04-19T16:49:04.579Z,21.40
2023-04-19T16:51:59.032Z,21.50
2023-04-19T16:54:51.740Z,21.50
2023-04-19T16:57:44.514Z,21.60
2023-04-19T17:00:38.162Z,21.70
2023-04-19T17:03:32.136Z,21.70
2023-04-19T17:06:26.170Z,21.80
2023-04-19T17:09:21.112Z,21.80
2023-04-19T17:12:15.149Z,21.90
2023-04-19T17:15:09.444Z,21.90
2023-04-19T17:18:04.010Z,21.90
2023-04-19T17:20:56.972Z,21.90
2023-04-19T17:23:49.976Z,22.00
2023-04-19T17:26:43.972Z,21.90
2023-04-19T17:29:37.268Z,21.90
2023-04-19T17:32:30.761Z,21.90
2023-04-19T17:35:23.809Z,21.90
2023-04-19T17:38:16.858Z,21.90
2023-04-19T17:41:15.962Z,21.90
2023-04-19T17:44:09.959Z,21.90
2023-04-19T17:47:02.804Z,21.90
2023-04-19T17:50:06.616Z,21.90
2023-04-19T17:53:00.252Z,21.90
2023-04-19T17:55:53.830Z,21.90
2023-04-19T17:58:47.049Z,21.80
2023-04-19T18:01:41.362Z,21.80
2023-04-19T18:04:34.623Z,21.80
2023-04-19T18:07:27.671Z,21.80
2023-04-19T18:10:20.715Z,21.80
2023-04-19T18:13:13.899Z,21.80
2023-04-19T18:16:07.746Z,21.80
2023-04-19T18:19:02.154Z,21.80
2023-04-19T18:21:55.971Z,21.70
2023-04-19T18:24:51.079Z,21.70
2023-04-19T18:27:43.782Z,21.70
2023-04-19T18:30:36.853Z,21.70
2023-04-19T18:33:29.940Z,21.70
2023-04-19T18:36:24.020Z,21.70
2023-04-19T18:39:18.739Z,21.70
2023-04-19T18:42:11.726Z,21.70
2023-04-19T18:45:05.933Z,21.60
2023-04-19T18:48:01.105Z,21.60
2023-04-19T18:50:54.939Z,21.60
2023-04-19T18:53:50.114Z,21.60
2023-04-19T18:57:11.659Z,21.60
2023-04-19T18:59:57.186Z,21.60
2023-04-19T19:02:51.141Z,21.60
2023-04-19T19:05:44.921Z,21.50
2023-04-19T19:08:37.721Z,21.50
2023-04-19T19:14:28.933Z,21.50
2023-04-19T19:17:24.185Z,21.50
2023-04-19T19:20:17.819Z,21.50
2023-04-19T19:23:12.822Z,21.50
2023-04-19T19:26:05.597Z,21.50
2023-04-19T19:29:01.234Z,21.40
2023-04-19T19:31:54.719Z,21.50
2023-04-19T19:37:45.713Z,21.50
2023-04-19T19:41:04.057Z,21.40
2023-04-19T19:43:51.557Z,21.40
2023-04-19T19:46:46.231Z,21.40
2023-04-19T19:50:04.678Z,21.40
2023-04-19T19:52:52.846Z,21.40
2023-04-19T19:55:46.042Z,21.40
2023-04-19T19:58:49.415Z,21.40
2023-04-19T20:01:46.521Z,21.40
2023-04-19T20:04:40.045Z,21.40
2023-04-19T20:07:53.542Z,21.30
2023-04-19T20:10:45.972Z,21.30
2023-04-19T20:13:38.594Z,21.30
2023-04-19T20:16:31.892Z,21.30
2023-04-19T20:19:26.352Z,21.30
2023-04-19T20:22:19.890Z,21.30
2023-04-19T20:25:13.565Z,21.30
2023-04-19T20:28:06.875Z,21.30
2023-04-19T20:30:59.774Z,21.30
2023-04-19T20:33:52.825Z,21.30
2023-04-19T20:36:47.505Z,21.30
2023-04-19T20:39:41.190Z,21.30
2023-04-19T20:42:34.038Z,21.30
2023-04-19T20:45:27.582Z,21.30
2023-04-19T20:48:21.047Z,21.20
2023-04-19T20:51:15.273Z,21.20
2023-04-19T20:54:10.504Z,21.30
2023-04-19T20:57:04.765Z,21.20
2023-04-19T20:59:57.994Z,21.20
2023-04-19T21:02:51.702Z,21.20
2023-04-19T21:05:45.274Z,21.20
2023-04-19T21:08:38.717Z,21.20
2023-04-19T21:11:33.486Z,21.20
2023-04-19T21:14:26.889Z,21.20
2023-04-19T21:17:20.141Z,21.20
2023-04-19T21:20:14.576Z,21.20
2023-04-19T21:23:08.184Z,21.20
2023-04-19T21:26:02.466Z,21.20
2023-04-19T21:28:57.456Z,21.20
2023-04-19T21:31:51.222Z,21.20
2023-04-19T21:34:45.088Z,21.20
2023-04-19T21:37:38.239Z,21.10
2023-04-19T21:40:31.129Z,21.20
2023-04-19T21:43:24.124Z,21.10
2023-04-19T21:46:18.018Z,21.10
2023-04-19T21:49:10.946Z,21.10
2023-04-19T21:52:04.078Z,21.10
2023-04-19T21:54:56.958Z,21.10
2023-04-19T21:57:50.184Z,21.10
2023-04-19T22:00:43.489Z,21.10
2023-04-19T22:03:39.355Z,21.10
2023-04-19T22:06:33.491Z,21.10
2023-04-19T22:09:26.797Z,21.10
2023-04-19T22:12:20.078Z,21.10
2023-04-19T22:15:13.379Z,21.10
2023-04-19T22:18:08.151Z,21.10
2023-04-19T22:21:02.360Z,21.10
2023-04-19T22:23:55.939Z,21.10
2023-04-19T22:26:49.945Z,21.10
2023-04-19T22:29:42.601Z,21.10
2023-04-19T22:32:35.885Z,21.10
2023-04-19T22:35:29.013Z,21.10
2023-04-19T22:38:23.614Z,21.10
2023-04-19T22:41:16.949Z,21.10
2023-04-19T22:44:10.129Z,21.10
2023-04-19T22:47:03.461Z,21.10
2023-04-19T22:49:57.014Z,21.10
2023-04-19T22:52:49.847Z,21.10
2023-04-19T22:55:44.383Z,21.10
2023-04-19T22:58:37.935Z,21.10
2023-04-19T23:01:31.069Z,21.00
2023-04-19T23:04:24.074Z,21.00
2023-04-19T23:07:19.845Z,21.00
2023-04-19T23:10:13.231Z,21.00
2023-04-19T23:13:10.047Z,21.00
2023-04-19T23:16:03.082Z,21.00
2023-04-19T23:18:56.706Z,21.00
2023-04-19T23:21:50.322Z,21.00
2023-04-19T23:24:42.922Z,21.00
2023-04-19T23:27:36.429Z,21.00
2023-04-19T23:30:32.003Z,21.00
2023-04-19T23:33:24.984Z,21.00
2023-04-19T23:36:18.202Z,21.00
2023-04-19T23:39:11.150Z,21.00
2023-04-19T23:42:03.979Z,21.00
2023-04-19T23:44:57.390Z,21.00
2023-04-19T23:47:51.323Z,21.00
2023-04-19T23:50:45.058Z,21.00
2023-04-19T23:53:38.668Z,21.00
2023-04-19T23:56:32.125Z,21.00
2023-04-19T23:59:26.769Z,21.00
